createdAt,value
2019-01-23T00:01:34.851Z,48.7
2019-01-23T00:06:40.056Z,48.8
2019-01-23T00:11:45.661Z,48.8
2019-01-23T00:16:51.338Z,48.9
2019-01-23T00:21:56.460Z,48.9
2019-01-23T00:27:01.593Z,48.9
2019-01-23T00:32:06.763Z,48.9
2019-01-23T00:37:11.809Z,48.9
2019-01-23T00:42:16.917Z,49
2019-01-23T00:47:22.001Z,48.9
2019-01-23T00:52:27.153Z,49
2019-01-23T00:57:32.331Z,49
2019-01-23T01:02:37.393Z,49
2019-01-23T01:07:42.545Z,49
2019-01-23T01:12:47.813Z,49.1
2019-01-23T01:17:52.971Z,49
2019-01-23T01:22:57.263Z,49.1
2019-01-23T01:28:02.929Z,49
2019-01-23T01:33:07.988Z,49
2019-01-23T01:38:13.328Z,48.9
2019-01-23T01:43:18.891Z,49
2019-01-23T01:48:23.811Z,49
2019-01-23T01:53:30.138Z,48.9
2019-01-23T01:58:35.431Z,49.1
2019-01-23T02:03:41.137Z,49.1
2019-01-23T02:08:46.311Z,49.1
2019-01-23T02:13:51.956Z,49.1
2019-01-23T02:18:57.475Z,49.1
2019-01-23T02:24:02.841Z,49.2
2019-01-23T02:29:12.358Z,49.2
2019-01-23T02:39:11.987Z,49.2
2019-01-23T02:44:18.045Z,49.5
2019-01-23T02:49:23.318Z,49.3
2019-01-23T02:54:28.995Z,49.2
2019-01-23T02:59:34.552Z,49.2
2019-01-23T03:04:39.809Z,49.2
2019-01-23T03:14:48.345Z,49.3
2019-01-23T03:19:53.978Z,49.2
2019-01-23T03:24:59.163Z,49.1
2019-01-23T03:30:04.203Z,49.2
2019-01-23T03:35:10.194Z,49.2
2019-01-23T03:40:15.738Z,49.2
2019-01-23T03:45:21.190Z,49.1
2019-01-23T03:50:26.954Z,49.2
2019-01-23T03:55:32.746Z,49.2
2019-01-23T04:00:38.025Z,49.2
2019-01-23T04:05:44.368Z,49.2
2019-01-23T04:10:49.869Z,49.2
2019-01-23T04:15:55.412Z,49.2
2019-01-23T04:21:01.075Z,49.2
2019-01-23T04:26:06.792Z,49.2
2019-01-23T04:31:12.302Z,49.2
2019-01-23T04:36:17.776Z,49.2
2019-01-23T04:41:23.433Z,49.2
2019-01-23T04:46:27.633Z,49.1
2019-01-23T04:51:33.577Z,49
2019-01-23T04:56:39.218Z,48.9
2019-01-23T05:01:44.935Z,48.8
2019-01-23T05:06:50.300Z,48.8
2019-01-23T05:11:55.548Z,48.8
2019-01-23T05:17:01.145Z,48.7
2019-01-23T05:22:06.788Z,48.7
2019-01-23T05:27:12.607Z,48.7
2019-01-23T05:32:18.609Z,48.6
2019-01-23T05:37:24.281Z,48.6
2019-01-23T05:42:29.827Z,48.7
2019-01-23T05:47:36.216Z,48.9
2019-01-23T06:02:50.746Z,48
2019-01-23T06:12:59.330Z,48
2019-01-23T06:18:04.684Z,47.9
2019-01-23T06:23:09.767Z,48
2019-01-23T06:28:15.214Z,48.1
2019-01-23T06:33:20.791Z,48.2
2019-01-23T06:38:26.423Z,47.9
2019-01-23T06:43:31.971Z,47.7
2019-01-23T06:48:37.346Z,47.6
2019-01-23T06:53:42.840Z,47.6
2019-01-23T06:58:48.710Z,47.2
2019-01-23T07:03:53.865Z,47
2019-01-23T07:08:59.549Z,46.9
2019-01-23T07:14:05.149Z,46.7
2019-01-23T07:19:10.732Z,46.6
2019-01-23T07:24:16.270Z,46.4
2019-01-23T07:29:21.778Z,46.4
2019-01-23T07:34:27.266Z,46.4
2019-01-23T07:39:35.109Z,46.4
2019-01-23T07:44:40.922Z,46.3
2019-01-23T07:49:46.647Z,46.3
2019-01-23T07:54:51.820Z,46.1
2019-01-23T07:59:57.362Z,46
2019-01-23T08:05:02.834Z,46.1
2019-01-23T08:10:08.430Z,46.3
2019-01-23T08:15:14.056Z,46.4
2019-01-23T08:20:20.136Z,46.2
2019-01-23T08:25:26.968Z,46.2
2019-01-23T08:30:41.827Z,45.9
2019-01-23T08:35:37.245Z,45.8
2019-01-23T08:40:42.577Z,46.2
2019-01-23T08:45:49.103Z,46.3
2019-01-23T08:50:54.937Z,46.6
2019-01-23T08:56:00.303Z,46.2
2019-01-23T09:01:06.424Z,46.3
2019-01-23T09:06:11.661Z,47
2019-01-23T09:11:16.827Z,46.4
2019-01-23T09:16:22.034Z,46.4
2019-01-23T09:21:27.398Z,46.4
2019-01-23T09:26:32.492Z,46.6
2019-01-23T09:31:37.976Z,46.4
2019-01-23T09:36:43.198Z,46.6
2019-01-23T09:41:48.401Z,46.5
2019-01-23T09:51:57.522Z,46.7
2019-01-23T09:57:02.560Z,46.6
2019-01-23T10:02:08.318Z,46.7
2019-01-23T10:07:13.337Z,46.9
2019-01-23T10:12:19.552Z,46.9
2019-01-23T10:17:24.679Z,46.9
2019-01-23T10:22:32.482Z,47.1
2019-01-23T10:27:38.182Z,47.1
2019-01-23T10:32:46.238Z,47.2
2019-01-23T10:37:51.293Z,47.2
2019-01-23T10:42:57.597Z,47.2
2019-01-23T10:48:02.689Z,47.1
2019-01-23T10:53:12.566Z,47
2019-01-23T10:58:17.684Z,47
2019-01-23T11:03:23.109Z,47.1
2019-01-23T11:08:29.679Z,47.2
2019-01-23T11:13:35.314Z,47.2
2019-01-23T11:23:44.472Z,47.5
2019-01-23T11:28:50.822Z,47.5
2019-01-23T11:33:56.463Z,47.5
2019-01-23T11:39:01.577Z,48.2
2019-01-23T11:44:07.215Z,47.6
2019-01-23T11:49:12.993Z,47.6
2019-01-23T11:54:18.561Z,47.7
2019-01-23T11:59:24.766Z,47.6
2019-01-23T12:04:31.117Z,47.6
2019-01-23T12:09:36.112Z,47.6
2019-01-23T12:14:41.679Z,47.6
2019-01-23T12:19:45.417Z,47.3
2019-01-23T12:24:51.545Z,47.5
2019-01-23T12:29:57.272Z,47.5
2019-01-23T12:35:03.277Z,47.1
2019-01-23T12:40:12.711Z,47.1
2019-01-23T12:50:22.851Z,47.4
2019-01-23T12:55:28.150Z,47.8
2019-01-23T13:00:33.360Z,47.8
2019-01-23T13:05:39.064Z,47.8
2019-01-23T13:10:45.880Z,47.8
2019-01-23T13:20:55.261Z,48.3
2019-01-23T13:26:00.904Z,48.2
2019-01-23T13:31:06.796Z,48.1
2019-01-23T13:36:12.692Z,48.1
2019-01-23T13:41:17.795Z,48
2019-01-23T13:46:23.430Z,48
2019-01-23T13:51:29.179Z,48
2019-01-23T13:56:35.386Z,48
2019-01-23T14:01:41.201Z,48
2019-01-23T14:06:48.427Z,48
2019-01-23T14:11:53.894Z,48
2019-01-23T14:16:59.229Z,48
2019-01-23T14:22:04.165Z,47.8
2019-01-23T14:27:11.238Z,47.8
2019-01-23T14:32:20.670Z,47.7
2019-01-23T14:37:26.441Z,47.8
2019-01-23T14:42:32.129Z,47.7
2019-01-23T14:47:38.288Z,47.6
2019-01-23T14:52:45.269Z,47.6
2019-01-23T14:57:51.209Z,47.6
2019-01-23T15:02:56.473Z,47.7
2019-01-23T15:08:05.338Z,47.6
2019-01-23T15:13:05.862Z,47.7
2019-01-23T15:18:12.101Z,47.6
2019-01-23T15:23:17.906Z,47.6
2019-01-23T15:28:23.101Z,47.5
2019-01-23T15:33:28.477Z,47.6
2019-01-23T15:38:34.233Z,47.3
2019-01-23T15:43:39.290Z,47.5
2019-01-23T15:48:45.507Z,47.3
2019-01-23T15:53:51.596Z,47.3
2019-01-23T16:04:01.573Z,47
2019-01-23T16:14:11.307Z,47.3
2019-01-23T16:19:17.076Z,47.3
2019-01-23T16:24:22.653Z,47.3
2019-01-23T16:29:27.790Z,47.8
2019-01-23T16:34:32.973Z,48
2019-01-23T16:39:39.057Z,48.1
2019-01-23T16:44:45.080Z,48.1
2019-01-23T16:49:51.964Z,47.8
2019-01-23T16:54:55.859Z,47.8
2019-01-23T17:00:01.492Z,47.8
2019-01-23T17:05:06.832Z,47.9
2019-01-23T17:10:13.068Z,48
2019-01-23T17:15:19.528Z,48
2019-01-23T17:20:23.455Z,48
2019-01-23T17:25:28.556Z,48.2
2019-01-23T17:30:33.970Z,48.4
2019-01-23T17:35:39.512Z,48.7
2019-01-23T17:40:45.317Z,49.3
2019-01-23T17:45:50.940Z,49
2019-01-23T17:50:57.525Z,48.4
2019-01-23T17:56:03.832Z,48.4
2019-01-23T18:01:11.887Z,49.2
2019-01-23T18:06:10.700Z,49.2
2019-01-23T18:11:15.847Z,49.5
2019-01-23T18:16:21.914Z,49.6
2019-01-23T18:21:30.339Z,49.8
2019-01-23T18:26:40.233Z,50.4
2019-01-23T18:31:46.002Z,50.4
2019-01-23T18:36:48.101Z,33.4
2019-01-23T18:41:54.533Z,39.7
2019-01-23T18:47:00.704Z,39.6
2019-01-23T18:52:09.091Z,42.4
2019-01-23T18:57:18.828Z,43
2019-01-23T19:02:24.992Z,43
2019-01-23T19:07:30.383Z,43.5
2019-01-23T19:12:35.750Z,44
2019-01-23T19:17:41.583Z,45
2019-01-23T19:22:47.287Z,46.9
2019-01-23T19:27:53.228Z,47.2
2019-01-23T19:32:58.586Z,47.5
2019-01-23T19:38:04.578Z,47.8
2019-01-23T19:43:09.926Z,47.5
2019-01-23T19:48:15.967Z,47.3
2019-01-23T19:53:22.095Z,47.1
2019-01-23T19:58:27.785Z,46.9
2019-01-23T20:03:33.403Z,46.4
2019-01-23T20:08:39.187Z,46.4
2019-01-23T20:13:45.124Z,46.5
2019-01-23T20:18:50.260Z,46.6
2019-01-23T20:23:56.092Z,46.8
2019-01-23T20:29:01.774Z,46.9
2019-01-23T20:34:07.015Z,46.9
2019-01-23T20:39:17.649Z,47.8
2019-01-23T20:44:12.917Z,47
2019-01-23T20:49:17.817Z,47
2019-01-23T20:54:22.864Z,47.1
2019-01-23T20:59:30.041Z,47.2
2019-01-23T21:04:36.163Z,47.2
2019-01-23T21:09:41.695Z,47.4
2019-01-23T21:14:48.210Z,47.4
2019-01-23T21:19:53.777Z,47.4
2019-01-23T21:24:59.004Z,47.5
2019-01-23T21:30:04.082Z,47.7
2019-01-23T21:35:10.040Z,47.5
2019-01-23T21:40:15.335Z,47.4
2019-01-23T21:45:21.202Z,47.5
2019-01-23T21:50:26.429Z,47.5
2019-01-23T21:55:32.741Z,47.6
2019-01-23T22:00:37.757Z,47.8
2019-01-23T22:05:43.615Z,47.8
2019-01-23T22:10:49.520Z,48.4
2019-01-23T22:15:54.934Z,48.5
2019-01-23T22:21:00.359Z,48.5
2019-01-23T22:26:05.413Z,49.5
2019-01-23T22:31:10.546Z,49.7
2019-01-23T22:36:16.094Z,49.7
2019-01-23T22:41:21.880Z,49.7
2019-01-23T22:46:28.052Z,49.8
2019-01-23T22:51:33.408Z,49.8
2019-01-23T22:56:39.344Z,49.9
2019-01-23T23:01:44.534Z,50
2019-01-23T23:06:49.672Z,50
2019-01-23T23:11:55.285Z,50
2019-01-23T23:17:00.944Z,50
2019-01-23T23:22:06.941Z,50.2
2019-01-23T23:27:12.516Z,50.1
2019-01-23T23:32:18.278Z,50.1
2019-01-23T23:37:23.977Z,50.1
2019-01-23T23:42:29.010Z,50.2
2019-01-23T23:47:34.377Z,50.2
2019-01-23T23:52:39.851Z,50.2
2019-01-23T23:57:45.680Z,50.2
